Time;durP1;ratioP1;P1;durP2;ratioP2;P2;SDS_P1;SDS_P2;PMS_P1;PMS_P2;Temp;Humidity;BMP_temperature;BMP_pressure;BME280_temperature;BME280_humidity;BME280_pressure;Samples;Min_cycle;Max_cycle;Signal;HPM_P1;HPM_P2
2024/01/24 00:01:03;;;;;;;2.80;2.40;;;;;;;;;;5095155;28;20184;-55
2024/01/24 00:03:31;;;;;;;6.00;5.50;;;;;;;;;;5093826;28;20267;-55
2024/01/24 00:05:58;;;;;;;4.07;3.37;;;;;;;;;;5094175;28;20244;-56
2024/01/24 00:08:25;;;;;;;3.50;3.17;;;;;;;;;;5094978;28;20707;-56
2024/01/24 00:10:52;;;;;;;3.87;3.00;;;;;;;;;;5094188;28;20172;-56
2024/01/24 00:13:18;;;;;;;4.57;2.57;;;;;;;;;;5095932;28;20291;-56
2024/01/24 00:15:47;;;;;;;3.60;3.10;;;;;;;;;;5095054;28;20322;-56
2024/01/24 00:18:13;;;;;;;4.27;3.00;;;;;;;;;;5095526;28;20195;-58
2024/01/24 00:20:39;;;;;;;4.80;3.33;;;;;;;;;;5095366;28;20204;-56
2024/01/24 00:23:05;;;;;;;5.63;3.17;;;;;;;;;;5095643;28;20172;-55
2024/01/24 00:25:31;;;;;;;4.40;3.73;;;;;;;;;;5096648;28;20183;-58
2024/01/24 00:27:57;;;;;;;5.50;4.73;;;;;;;;;;5095788;28;20200;-57
2024/01/24 00:30:23;;;;;;;5.00;4.60;;;;;;;;;;5095906;28;20172;-57
2024/01/24 00:32:49;;;;;;;6.30;5.03;;;;;;;;;;5096184;28;20183;-54
2024/01/24 00:35:15;;;;;;;6.00;5.50;;;;;;;;;;5096752;28;20196;-57
2024/01/24 00:37:41;;;;;;;6.53;5.90;;;;;;;;;;5096112;28;20274;-55
2024/01/24 00:40:09;;;;;;;6.90;6.13;;;;;;;;;;5095427;28;20176;-55
2024/01/24 00:42:35;;;;;;;7.17;6.30;;;;;;;;;;5095435;28;20329;-57
2024/01/24 00:45:01;;;;;;;7.60;6.77;;;;;;;;;;5095529;28;20203;-57
2024/01/24 00:47:27;;;;;;;8.03;7.23;;;;;;;;;;5095816;28;20187;-56
2024/01/24 00:49:53;;;;;;;7.50;6.80;;;;;;;;;;5094756;28;20176;-55
2024/01/24 00:52:19;;;;;;;7.90;7.10;;;;;;;;;;5093545;28;20495;-55
2024/01/24 00:54:45;;;;;;;7.57;6.87;;;;;;;;;;5092506;28;20176;-55
2024/01/24 00:57:11;;;;;;;6.87;5.97;;;;;;;;;;5092826;28;20237;-53
2024/01/24 00:59:37;;;;;;;9.77;7.43;;;;;;;;;;5093433;28;20180;-55
2024/01/24 01:02:03;;;;;;;7.77;6.60;;;;;;;;;;5091711;28;20184;-54
2024/01/24 01:04:30;;;;;;;8.27;6.60;;;;;;;;;;5091720;28;20167;-54
2024/01/24 01:06:56;;;;;;;9.17;7.13;;;;;;;;;;5090266;28;20463;-55
2024/01/24 01:09:22;;;;;;;9.50;7.10;;;;;;;;;;5090910;28;20663;-56
2024/01/24 01:11:48;;;;;;;8.53;6.83;;;;;;;;;;5092024;28;20523;-54
2024/01/24 01:14:14;;;;;;;7.67;6.77;;;;;;;;;;5092253;28;20769;-51
2024/01/24 01:16:40;;;;;;;9.07;7.53;;;;;;;;;;5078605;28;20211;-55
2024/01/24 01:19:06;;;;;;;7.47;6.60;;;;;;;;;;5079119;28;20171;-56
2024/01/24 01:21:32;;;;;;;8.30;6.67;;;;;;;;;;5078909;28;20172;-56
2024/01/24 01:23:58;;;;;;;7.30;6.60;;;;;;;;;;5096064;28;20171;-55
2024/01/24 01:26:24;;;;;;;6.97;6.20;;;;;;;;;;5095696;28;20696;-52
2024/01/24 01:28:50;;;;;;;8.03;6.80;;;;;;;;;;5078393;28;20207;-55
2024/01/24 01:31:16;;;;;;;7.83;6.83;;;;;;;;;;5095319;28;20170;-54
2024/01/24 01:33:42;;;;;;;8.47;5.57;;;;;;;;;;5095944;28;20676;-52
2024/01/24 01:36:10;;;;;;;9.10;6.00;;;;;;;;;;5077670;28;20171;-55
2024/01/24 01:38:36;;;;;;;7.63;6.87;;;;;;;;;;5077938;28;20276;-55
2024/01/24 01:41:02;;;;;;;7.17;5.80;;;;;;;;;;5077606;28;20237;-52
2024/01/24 01:43:28;;;;;;;6.67;5.97;;;;;;;;;;5077731;28;20175;-56
2024/01/24 01:45:56;;;;;;;7.87;5.03;;;;;;;;;;5094807;28;20259;-54
2024/01/24 01:48:22;;;;;;;6.10;5.50;;;;;;;;;;5076983;28;20623;-58
2024/01/24 01:50:48;;;;;;;7.10;5.23;;;;;;;;;;5095846;28;20795;-53
2024/01/24 01:53:15;;;;;;;5.63;5.07;;;;;;;;;;5077392;28;20205;-58
2024/01/24 01:55:42;;;;;;;7.37;5.40;;;;;;;;;;5076694;28;20202;-57
2024/01/24 01:58:08;;;;;;;5.73;4.87;;;;;;;;;;5076484;28;20188;-56
2024/01/24 02:00:34;;;;;;;5.87;4.53;;;;;;;;;;5092341;28;20237;-53
2024/01/24 02:03:00;;;;;;;6.13;5.13;;;;;;;;;;5075542;28;20172;-57
2024/01/24 02:05:26;;;;;;;4.93;4.37;;;;;;;;;;5076445;28;20263;-55
2024/01/24 02:07:53;;;;;;;5.20;4.70;;;;;;;;;;5095164;28;20278;-53
2024/01/24 02:10:19;;;;;;;6.60;4.77;;;;;;;;;;5077731;28;20590;-52
2024/01/24 02:12:45;;;;;;;5.23;4.40;;;;;;;;;;5078167;28;20208;-56
2024/01/24 02:15:11;;;;;;;5.27;4.77;;;;;;;;;;5103575;28;20813;-57
2024/01/24 02:17:37;;;;;;;5.23;4.73;;;;;;;;;;5098048;28;20286;-55
2024/01/24 02:20:04;;;;;;;5.63;5.13;;;;;;;;;;5115890;28;20167;-54
2024/01/24 02:22:30;;;;;;;7.10;5.90;;;;;;;;;;5098367;28;20178;-52
2024/01/24 02:24:56;;;;;;;5.67;5.07;;;;;;;;;;5097415;28;20469;-53
2024/01/24 02:27:22;;;;;;;5.60;4.67;;;;;;;;;;5097532;28;20502;-58
2024/01/24 02:29:48;;;;;;;6.83;5.40;;;;;;;;;;5115142;28;20172;-57
2024/01/24 02:32:14;;;;;;;5.40;4.93;;;;;;;;;;5097979;28;20172;-58
2024/01/24 02:34:40;;;;;;;6.10;5.17;;;;;;;;;;5098279;28;20190;-57
2024/01/24 02:37:06;;;;;;;7.43;5.83;;;;;;;;;;5097977;28;20168;-56
2024/01/24 02:39:32;;;;;;;6.10;5.60;;;;;;;;;;5115149;28;20206;-56
2024/01/24 02:41:58;;;;;;;6.37;5.77;;;;;;;;;;5113337;28;20342;-58
2024/01/24 02:44:24;;;;;;;7.37;5.80;;;;;;;;;;5097407;28;20183;-58
2024/01/24 02:46:50;;;;;;;7.03;6.43;;;;;;;;;;5097414;28;20176;-58
2024/01/24 02:49:16;;;;;;;9.30;7.40;;;;;;;;;;5114606;28;20710;-55
2024/01/24 02:51:42;;;;;;;7.87;6.27;;;;;;;;;;5096494;28;20176;-57
2024/01/24 02:54:08;;;;;;;6.90;6.07;;;;;;;;;;5095199;28;20382;-53
2024/01/24 02:56:35;;;;;;;6.60;6.00;;;;;;;;;;5091498;28;20183;-54
2024/01/24 02:59:01;;;;;;;7.00;6.33;;;;;;;;;;5109235;28;20501;-53
2024/01/24 03:01:27;;;;;;;7.33;6.63;;;;;;;;;;5092104;28;20547;-56
2024/01/24 03:03:53;;;;;;;7.00;6.40;;;;;;;;;;5109535;28;20424;-54
2024/01/24 03:06:19;;;;;;;7.53;6.03;;;;;;;;;;5091184;28;20168;-56
2024/01/24 03:08:48;;;;;;;7.93;7.10;;;;;;;;;;5092756;28;20252;-58
2024/01/24 03:11:15;;;;;;;7.43;6.70;;;;;;;;;;5093958;28;20187;-55
2024/01/24 03:13:41;;;;;;;6.90;6.30;;;;;;;;;;5113931;28;20240;-57
2024/01/24 03:16:07;;;;;;;7.33;6.63;;;;;;;;;;5098956;28;20235;-55
2024/01/24 03:18:36;;;;;;;7.87;7.17;;;;;;;;;;5099780;28;20251;-58
2024/01/24 03:21:02;;;;;;;7.47;6.87;;;;;;;;;;5097684;28;20180;-56
2024/01/24 03:23:28;;;;;;;6.27;5.67;;;;;;;;;;5098152;28;20172;-56
2024/01/24 03:25:54;;;;;;;5.80;5.30;;;;;;;;;;5099065;28;20172;-59
2024/01/24 03:28:20;;;;;;;6.57;6.10;;;;;;;;;;5097516;28;20200;-56
2024/01/24 03:30:46;;;;;;;5.27;4.87;;;;;;;;;;5098476;28;20175;-56
2024/01/24 03:33:12;;;;;;;6.20;5.70;;;;;;;;;;5098091;28;20534;-57
2024/01/24 03:35:38;;;;;;;4.97;4.57;;;;;;;;;;5097287;28;20182;-56
2024/01/24 03:38:04;;;;;;;5.20;4.73;;;;;;;;;;5097873;28;20631;-56
2024/01/24 03:40:32;;;;;;;5.20;4.70;;;;;;;;;;5098348;28;20246;-57
2024/01/24 03:42:58;;;;;;;3.70;3.40;;;;;;;;;;5097600;28;20179;-58
2024/01/24 03:45:24;;;;;;;3.57;3.27;;;;;;;;;;5097671;28;20556;-56
2024/01/24 03:47:50;;;;;;;3.43;2.60;;;;;;;;;;5097963;28;20272;-57
2024/01/24 03:50:17;;;;;;;3.77;2.33;;;;;;;;;;5098247;28;20164;-58
2024/01/24 03:52:43;;;;;;;5.40;3.03;;;;;;;;;;5097250;28;20172;-54
2024/01/24 03:55:09;;;;;;;6.33;2.47;;;;;;;;;;5098566;28;20458;-54
2024/01/24 03:57:35;;;;;;;9.30;2.23;;;;;;;;;;5097725;28;20173;-58
2024/01/24 04:00:01;;;;;;;11.17;2.23;;;;;;;;;;5097993;28;20724;-56
2024/01/24 04:02:27;;;;;;;7.47;1.67;;;;;;;;;;5097343;28;20172;-57
2024/01/24 04:04:53;;;;;;;9.63;2.27;;;;;;;;;;5097212;28;20535;-57
2024/01/24 04:07:19;;;;;;;7.60;2.13;;;;;;;;;;5092990;28;20512;-56
2024/01/24 04:09:45;;;;;;;7.50;2.60;;;;;;;;;;5092798;28;20184;-58
2024/01/24 04:12:11;;;;;;;11.00;3.13;;;;;;;;;;5093283;28;20234;-58
2024/01/24 04:14:37;;;;;;;10.77;2.63;;;;;;;;;;5096777;28;20242;-58
2024/01/24 04:17:03;;;;;;;11.67;3.43;;;;;;;;;;5099371;28;20190;-56
2024/01/24 04:19:29;;;;;;;9.27;2.70;;;;;;;;;;5099369;28;20167;-58
2024/01/24 04:21:56;;;;;;;6.47;2.27;;;;;;;;;;5099346;28;20554;-58
2024/01/24 04:24:21;;;;;;;7.33;2.53;;;;;;;;;;5099267;28;20264;-56
2024/01/24 04:26:48;;;;;;;8.47;2.20;;;;;;;;;;5098277;28;20320;-58
2024/01/24 04:29:14;;;;;;;7.27;2.27;;;;;;;;;;5098744;28;20203;-55
2024/01/24 04:31:42;;;;;;;4.43;1.37;;;;;;;;;;5099513;28;20163;-56
2024/01/24 04:34:07;;;;;;;10.13;2.43;;;;;;;;;;5099179;28;20463;-58
2024/01/24 04:36:33;;;;;;;6.73;1.60;;;;;;;;;;5099847;28;20538;-56
2024/01/24 04:38:59;;;;;;;3.80;1.50;;;;;;;;;;5099195;28;20214;-58
2024/01/24 04:41:25;;;;;;;6.97;2.40;;;;;;;;;;5101464;28;20198;-55
2024/01/24 04:43:51;;;;;;;6.07;1.93;;;;;;;;;;5100786;28;20213;-58
2024/01/24 04:46:17;;;;;;;7.03;2.00;;;;;;;;;;5101181;28;20294;-57
2024/01/24 04:48:44;;;;;;;10.73;2.83;;;;;;;;;;5100576;28;20692;-54
2024/01/24 04:51:11;;;;;;;12.03;2.17;;;;;;;;;;5100430;28;20167;-56
2024/01/24 04:53:39;;;;;;;12.53;3.17;;;;;;;;;;5100360;28;20203;-57
2024/01/24 04:56:05;;;;;;;7.23;2.50;;;;;;;;;;5099661;28;20168;-57
2024/01/24 04:58:31;;;;;;;9.43;2.33;;;;;;;;;;5117569;28;20171;-56
2024/01/24 05:00:57;;;;;;;12.13;2.87;;;;;;;;;;5099726;28;20179;-57
2024/01/24 05:03:23;;;;;;;13.77;3.47;;;;;;;;;;5098474;28;20228;-57
